sensor_id;sensor_type;location;lat;lon;timestamp;P1;durP1;ratioP1;P2;durP2;ratioP2
61709;SDS011;47633;51.494;5.386;2023-07-24T00:01:28;3.05;;;1.50;;
61709;SDS011;47633;51.494;5.386;2023-07-24T00:03:53;4.28;;;1.80;;
61709;SDS011;47633;51.494;5.386;2023-07-24T00:06:21;3.10;;;1.60;;
61709;SDS011;47633;51.494;5.386;2023-07-24T00:08:46;3.70;;;1.80;;
61709;SDS011;47633;51.494;5.386;2023-07-24T00:11:11;2.95;;;1.40;;
61709;SDS011;47633;51.494;5.386;2023-07-24T00:13:37;3.22;;;1.58;;
61709;SDS011;47633;51.494;5.386;2023-07-24T00:16:08;3.45;;;1.63;;
61709;SDS011;47633;51.494;5.386;2023-07-24T00:18:34;4.70;;;2.08;;
61709;SDS011;47633;51.494;5.386;2023-07-24T00:20:59;3.10;;;1.60;;
61709;SDS011;47633;51.494;5.386;2023-07-24T00:23:24;3.13;;;1.52;;
61709;SDS011;47633;51.494;5.386;2023-07-24T00:25:50;2.78;;;1.38;;
61709;SDS011;47633;51.494;5.386;2023-07-24T00:28:15;3.67;;;1.65;;
61709;SDS011;47633;51.494;5.386;2023-07-24T00:30:40;3.30;;;1.60;;
61709;SDS011;47633;51.494;5.386;2023-07-24T00:33:07;3.10;;;1.60;;
61709;SDS011;47633;51.494;5.386;2023-07-24T00:35:32;3.30;;;1.55;;
61709;SDS011;47633;51.494;5.386;2023-07-24T00:37:58;3.72;;;1.75;;
61709;SDS011;47633;51.494;5.386;2023-07-24T00:40:23;3.72;;;1.75;;
61709;SDS011;47633;51.494;5.386;2023-07-24T00:42:48;3.35;;;1.58;;
61709;SDS011;47633;51.494;5.386;2023-07-24T00:45:14;3.30;;;1.42;;
61709;SDS011;47633;51.494;5.386;2023-07-24T00:47:40;3.08;;;1.42;;
61709;SDS011;47633;51.494;5.386;2023-07-24T00:50:07;3.17;;;1.60;;
61709;SDS011;47633;51.494;5.386;2023-07-24T00:52:33;3.10;;;1.60;;
61709;SDS011;47633;51.494;5.386;2023-07-24T00:54:58;4.25;;;1.63;;
61709;SDS011;47633;51.494;5.386;2023-07-24T00:57:24;3.60;;;1.55;;
61709;SDS011;47633;51.494;5.386;2023-07-24T00:59:49;3.63;;;1.70;;
61709;SDS011;47633;51.494;5.386;2023-07-24T01:02:15;2.85;;;1.52;;
61709;SDS011;47633;51.494;5.386;2023-07-24T01:04:40;3.05;;;1.65;;
61709;SDS011;47633;51.494;5.386;2023-07-24T01:07:06;3.45;;;1.60;;
61709;SDS011;47633;51.494;5.386;2023-07-24T01:09:31;4.65;;;1.70;;
61709;SDS011;47633;51.494;5.386;2023-07-24T01:11:57;3.50;;;1.80;;
61709;SDS011;47633;51.494;5.386;2023-07-24T01:14:40;3.20;;;1.60;;
61709;SDS011;47633;51.494;5.386;2023-07-24T01:17:12;3.33;;;1.57;;
61709;SDS011;47633;51.494;5.386;2023-07-24T01:19:48;3.38;;;1.50;;
61709;SDS011;47633;51.494;5.386;2023-07-24T01:25:10;3.03;;;1.60;;
61709;SDS011;47633;51.494;5.386;2023-07-24T01:27:50;5.72;;;1.90;;
61709;SDS011;47633;51.494;5.386;2023-07-24T01:30:17;3.88;;;1.77;;
61709;SDS011;47633;51.494;5.386;2023-07-24T01:32:43;3.65;;;1.73;;
61709;SDS011;47633;51.494;5.386;2023-07-24T01:35:09;4.60;;;1.80;;
61709;SDS011;47633;51.494;5.386;2023-07-24T01:37:34;5.40;;;2.10;;
61709;SDS011;47633;51.494;5.386;2023-07-24T01:40:02;3.45;;;1.48;;
61709;SDS011;47633;51.494;5.386;2023-07-24T01:42:28;4.40;;;1.80;;
61709;SDS011;47633;51.494;5.386;2023-07-24T01:44:54;4.03;;;2.05;;
61709;SDS011;47633;51.494;5.386;2023-07-24T01:47:20;4.43;;;2.08;;
61709;SDS011;47633;51.494;5.386;2023-07-24T01:49:46;3.97;;;2.00;;
61709;SDS011;47633;51.494;5.386;2023-07-24T01:52:12;3.22;;;1.73;;
61709;SDS011;47633;51.494;5.386;2023-07-24T01:54:37;4.53;;;2.10;;
61709;SDS011;47633;51.494;5.386;2023-07-24T01:57:03;3.65;;;1.83;;
61709;SDS011;47633;51.494;5.386;2023-07-24T01:59:28;3.85;;;1.88;;
61709;SDS011;47633;51.494;5.386;2023-07-24T02:01:53;3.67;;;1.90;;
61709;SDS011;47633;51.494;5.386;2023-07-24T02:04:19;4.75;;;2.00;;
61709;SDS011;47633;51.494;5.386;2023-07-24T02:06:47;3.90;;;1.83;;
61709;SDS011;47633;51.494;5.386;2023-07-24T02:09:17;4.10;;;2.08;;
61709;SDS011;47633;51.494;5.386;2023-07-24T02:11:43;4.53;;;1.88;;
61709;SDS011;47633;51.494;5.386;2023-07-24T02:14:08;3.53;;;2.00;;
61709;SDS011;47633;51.494;5.386;2023-07-24T02:16:34;3.40;;;1.80;;
61709;SDS011;47633;51.494;5.386;2023-07-24T02:19:00;4.10;;;1.90;;
61709;SDS011;47633;51.494;5.386;2023-07-24T02:21:25;3.17;;;1.75;;
61709;SDS011;47633;51.494;5.386;2023-07-24T02:23:50;4.25;;;2.00;;
61709;SDS011;47633;51.494;5.386;2023-07-24T02:26:16;4.13;;;2.10;;
61709;SDS011;47633;51.494;5.386;2023-07-24T02:28:41;4.28;;;2.00;;
61709;SDS011;47633;51.494;5.386;2023-07-24T02:31:06;3.97;;;1.75;;
61709;SDS011;47633;51.494;5.386;2023-07-24T02:33:32;3.70;;;1.90;;
61709;SDS011;47633;51.494;5.386;2023-07-24T02:35:57;3.83;;;2.03;;
61709;SDS011;47633;51.494;5.386;2023-07-24T02:38:22;4.20;;;1.80;;
61709;SDS011;47633;51.494;5.386;2023-07-24T02:40:48;7.22;;;2.00;;
61709;SDS011;47633;51.494;5.386;2023-07-24T02:43:13;4.05;;;1.80;;
61709;SDS011;47633;51.494;5.386;2023-07-24T02:45:40;3.17;;;1.83;;
61709;SDS011;47633;51.494;5.386;2023-07-24T02:48:05;3.28;;;1.70;;
61709;SDS011;47633;51.494;5.386;2023-07-24T02:50:32;4.50;;;1.83;;
61709;SDS011;47633;51.494;5.386;2023-07-24T02:52:58;3.47;;;1.90;;
61709;SDS011;47633;51.494;5.386;2023-07-24T02:55:23;3.38;;;1.73;;
61709;SDS011;47633;51.494;5.386;2023-07-24T02:57:48;3.23;;;1.63;;
61709;SDS011;47633;51.494;5.386;2023-07-24T03:00:14;3.70;;;1.75;;
61709;SDS011;47633;51.494;5.386;2023-07-24T03:02:39;4.15;;;2.17;;
61709;SDS011;47633;51.494;5.386;2023-07-24T03:05:04;4.00;;;1.80;;
61709;SDS011;47633;51.494;5.386;2023-07-24T03:07:31;3.40;;;1.67;;
61709;SDS011;47633;51.494;5.386;2023-07-24T03:09:56;3.95;;;1.98;;
61709;SDS011;47633;51.494;5.386;2023-07-24T03:12:22;3.47;;;1.85;;
61709;SDS011;47633;51.494;5.386;2023-07-24T03:14:47;3.40;;;1.70;;
61709;SDS011;47633;51.494;5.386;2023-07-24T03:17:13;3.72;;;1.75;;
61709;SDS011;47633;51.494;5.386;2023-07-24T03:19:38;3.97;;;1.90;;
61709;SDS011;47633;51.494;5.386;2023-07-24T03:22:03;3.50;;;1.90;;
61709;SDS011;47633;51.494;5.386;2023-07-24T03:24:28;4.10;;;1.90;;
61709;SDS011;47633;51.494;5.386;2023-07-24T03:26:54;3.60;;;1.73;;
61709;SDS011;47633;51.494;5.386;2023-07-24T03:29:19;3.65;;;2.03;;
61709;SDS011;47633;51.494;5.386;2023-07-24T03:31:44;4.67;;;1.93;;
61709;SDS011;47633;51.494;5.386;2023-07-24T03:34:09;3.75;;;1.90;;
61709;SDS011;47633;51.494;5.386;2023-07-24T03:36:35;3.60;;;1.80;;
61709;SDS011;47633;51.494;5.386;2023-07-24T03:39:00;3.63;;;1.70;;
61709;SDS011;47633;51.494;5.386;2023-07-24T03:41:26;3.55;;;1.70;;
61709;SDS011;47633;51.494;5.386;2023-07-24T03:43:51;3.78;;;1.88;;
61709;SDS011;47633;51.494;5.386;2023-07-24T03:46:16;3.70;;;1.80;;
61709;SDS011;47633;51.494;5.386;2023-07-24T03:48:42;4.45;;;1.80;;
61709;SDS011;47633;51.494;5.386;2023-07-24T03:51:07;3.55;;;1.95;;
61709;SDS011;47633;51.494;5.386;2023-07-24T03:53:33;4.43;;;1.80;;
61709;SDS011;47633;51.494;5.386;2023-07-24T03:55:58;3.58;;;1.70;;
61709;SDS011;47633;51.494;5.386;2023-07-24T03:58:24;4.40;;;1.85;;
61709;SDS011;47633;51.494;5.386;2023-07-24T04:00:49;3.55;;;1.83;;
61709;SDS011;47633;51.494;5.386;2023-07-24T04:03:15;3.38;;;1.70;;
61709;SDS011;47633;51.494;5.386;2023-07-24T04:05:40;4.32;;;1.90;;
61709;SDS011;47633;51.494;5.386;2023-07-24T04:08:05;3.88;;;1.73;;
61709;SDS011;47633;51.494;5.386;2023-07-24T04:10:31;3.33;;;1.65;;
61709;SDS011;47633;51.494;5.386;2023-07-24T04:12:56;3.40;;;1.70;;
61709;SDS011;47633;51.494;5.386;2023-07-24T04:15:22;3.38;;;1.70;;
61709;SDS011;47633;51.494;5.386;2023-07-24T04:17:47;3.55;;;1.75;;
61709;SDS011;47633;51.494;5.386;2023-07-24T04:20:13;3.08;;;1.63;;
61709;SDS011;47633;51.494;5.386;2023-07-24T04:22:38;4.13;;;1.90;;
61709;SDS011;47633;51.494;5.386;2023-07-24T04:25:04;3.08;;;1.50;;
61709;SDS011;47633;51.494;5.386;2023-07-24T04:27:29;3.90;;;1.80;;
61709;SDS011;47633;51.494;5.386;2023-07-24T04:29:55;4.07;;;1.75;;
61709;SDS011;47633;51.494;5.386;2023-07-24T04:32:20;3.65;;;1.88;;
61709;SDS011;47633;51.494;5.386;2023-07-24T04:34:45;4.07;;;1.90;;
61709;SDS011;47633;51.494;5.386;2023-07-24T04:37:10;4.25;;;2.00;;
61709;SDS011;47633;51.494;5.386;2023-07-24T04:39:38;4.75;;;1.60;;
61709;SDS011;47633;51.494;5.386;2023-07-24T04:42:04;4.05;;;2.05;;
61709;SDS011;47633;51.494;5.386;2023-07-24T04:44:29;3.30;;;1.63;;
61709;SDS011;47633;51.494;5.386;2023-07-24T04:46:55;3.85;;;1.80;;
61709;SDS011;47633;51.494;5.386;2023-07-24T04:49:20;4.63;;;1.85;;
61709;SDS011;47633;51.494;5.386;2023-07-24T04:51:46;3.90;;;2.05;;
61709;SDS011;47633;51.494;5.386;2023-07-24T04:54:11;3.80;;;1.97;;
61709;SDS011;47633;51.494;5.386;2023-07-24T04:56:36;4.00;;;1.70;;
61709;SDS011;47633;51.494;5.386;2023-07-24T04:59:02;3.53;;;1.75;;
61709;SDS011;47633;51.494;5.386;2023-07-24T05:01:27;3.40;;;1.60;;
61709;SDS011;47633;51.494;5.386;2023-07-24T05:03:52;2.85;;;1.52;;
61709;SDS011;47633;51.494;5.386;2023-07-24T05:06:18;3.75;;;1.75;;
61709;SDS011;47633;51.494;5.386;2023-07-24T05:08:43;4.35;;;1.70;;
61709;SDS011;47633;51.494;5.386;2023-07-24T05:11:08;4.15;;;1.73;;
61709;SDS011;47633;51.494;5.386;2023-07-24T05:13:34;3.40;;;1.80;;
61709;SDS011;47633;51.494;5.386;2023-07-24T05:15:59;3.45;;;1.83;;
61709;SDS011;47633;51.494;5.386;2023-07-24T05:18:24;4.60;;;1.67;;
61709;SDS011;47633;51.494;5.386;2023-07-24T05:20:50;4.32;;;1.90;;
61709;SDS011;47633;51.494;5.386;2023-07-24T05:23:18;3.50;;;1.70;;
61709;SDS011;47633;51.494;5.386;2023-07-24T05:25:44;3.42;;;1.70;;
61709;SDS011;47633;51.494;5.386;2023-07-24T05:28:09;3.70;;;1.95;;
61709;SDS011;47633;51.494;5.386;2023-07-24T05:30:35;3.97;;;2.13;;
61709;SDS011;47633;51.494;5.386;2023-07-24T05:33:00;3.30;;;1.75;;
61709;SDS011;47633;51.494;5.386;2023-07-24T05:35:26;4.10;;;1.90;;
61709;SDS011;47633;51.494;5.386;2023-07-24T05:37:51;3.50;;;1.73;;
61709;SDS011;47633;51.494;5.386;2023-07-24T05:40:16;3.60;;;1.98;;
61709;SDS011;47633;51.494;5.386;2023-07-24T05:42:42;3.50;;;1.80;;
61709;SDS011;47633;51.494;5.386;2023-07-24T05:45:08;3.10;;;1.73;;
61709;SDS011;47633;51.494;5.386;2023-07-24T05:47:35;3.67;;;1.70;;
61709;SDS011;47633;51.494;5.386;2023-07-24T05:50:01;3.42;;;1.70;;
61709;SDS011;47633;51.494;5.386;2023-07-24T05:52:26;3.60;;;1.70;;
61709;SDS011;47633;51.494;5.386;2023-07-24T05:54:52;3.47;;;1.73;;
61709;SDS011;47633;51.494;5.386;2023-07-24T05:57:17;3.15;;;1.70;;
61709;SDS011;47633;51.494;5.386;2023-07-24T05:59:42;3.30;;;1.90;;
61709;SDS011;47633;51.494;5.386;2023-07-24T06:02:08;3.88;;;1.98;;
61709;SDS011;47633;51.494;5.386;2023-07-24T06:04:34;4.85;;;1.95;;
61709;SDS011;47633;51.494;5.386;2023-07-24T06:06:59;3.83;;;2.00;;
61709;SDS011;47633;51.494;5.386;2023-07-24T06:09:24;3.80;;;2.17;;
61709;SDS011;47633;51.494;5.386;2023-07-24T06:11:50;4.32;;;2.38;;
61709;SDS011;47633;51.494;5.386;2023-07-24T06:14:15;5.28;;;2.15;;
61709;SDS011;47633;51.494;5.386;2023-07-24T06:16:40;3.58;;;2.00;;
61709;SDS011;47633;51.494;5.386;2023-07-24T06:19:06;4.38;;;2.30;;
61709;SDS011;47633;51.494;5.386;2023-07-24T06:21:31;4.95;;;1.90;;
61709;SDS011;47633;51.494;5.386;2023-07-24T06:23:56;4.90;;;2.13;;
61709;SDS011;47633;51.494;5.386;2023-07-24T06:26:22;3.97;;;2.20;;
61709;SDS011;47633;51.494;5.386;2023-07-24T06:28:47;15.52;;;2.53;;
61709;SDS011;47633;51.494;5.386;2023-07-24T06:31:12;4.50;;;2.20;;
61709;SDS011;47633;51.494;5.386;2023-07-24T06:33:38;3.30;;;1.80;;
61709;SDS011;47633;51.494;5.386;2023-07-24T06:36:03;4.50;;;2.03;;
61709;SDS011;47633;51.494;5.386;2023-07-24T06:38:29;3.67;;;1.90;;
61709;SDS011;47633;51.494;5.386;2023-07-24T06:40:54;4.78;;;2.25;;
61709;SDS011;47633;51.494;5.386;2023-07-24T06:43:19;4.13;;;1.80;;
61709;SDS011;47633;51.494;5.386;2023-07-24T06:45:45;3.60;;;2.00;;
61709;SDS011;47633;51.494;5.386;2023-07-24T06:48:10;3.90;;;1.88;;
61709;SDS011;47633;51.494;5.386;2023-07-24T06:50:35;4.50;;;2.08;;
61709;SDS011;47633;51.494;5.386;2023-07-24T06:53:01;3.75;;;2.00;;
61709;SDS011;47633;51.494;5.386;2023-07-24T06:55:26;4.25;;;2.13;;
61709;SDS011;47633;51.494;5.386;2023-07-24T06:57:51;4.07;;;2.25;;
61709;SDS011;47633;51.494;5.386;2023-07-24T07:00:17;3.55;;;1.90;;
61709;SDS011;47633;51.494;5.386;2023-07-24T07:02:42;3.83;;;1.73;;
61709;SDS011;47633;51.494;5.386;2023-07-24T07:05:07;5.25;;;2.08;;
61709;SDS011;47633;51.494;5.386;2023-07-24T07:07:33;4.07;;;2.00;;
61709;SDS011;47633;51.494;5.386;2023-07-24T07:09:58;4.70;;;2.05;;
61709;SDS011;47633;51.494;5.386;2023-07-24T07:12:24;4.95;;;2.17;;
61709;SDS011;47633;51.494;5.386;2023-07-24T07:14:49;4.57;;;2.30;;
61709;SDS011;47633;51.494;5.386;2023-07-24T07:17:14;3.95;;;1.73;;
61709;SDS011;47633;51.494;5.386;2023-07-24T07:19:40;4.28;;;2.13;;
61709;SDS011;47633;51.494;5.386;2023-07-24T07:22:05;5.70;;;2.30;;
61709;SDS011;47633;51.494;5.386;2023-07-24T07:24:31;4.22;;;2.13;;
61709;SDS011;47633;51.494;5.386;2023-07-24T07:26:56;4.55;;;1.98;;
61709;SDS011;47633;51.494;5.386;2023-07-24T07:29:21;4.10;;;2.13;;
61709;SDS011;47633;51.494;5.386;2023-07-24T07:31:47;4.95;;;2.05;;
61709;SDS011;47633;51.494;5.386;2023-07-24T07:34:12;4.03;;;2.10;;
61709;SDS011;47633;51.494;5.386;2023-07-24T07:36:37;3.90;;;2.08;;
61709;SDS011;47633;51.494;5.386;2023-07-24T07:39:03;3.90;;;2.08;;
61709;SDS011;47633;51.494;5.386;2023-07-24T07:41:28;4.75;;;1.95;;
61709;SDS011;47633;51.494;5.386;2023-07-24T07:43:54;3.40;;;1.90;;
61709;SDS011;47633;51.494;5.386;2023-07-24T07:46:19;4.22;;;2.00;;
61709;SDS011;47633;51.494;5.386;2023-07-24T07:48:45;5.22;;;2.30;;
61709;SDS011;47633;51.494;5.386;2023-07-24T07:51:11;4.15;;;1.98;;
61709;SDS011;47633;51.494;5.386;2023-07-24T07:53:37;4.35;;;2.20;;
61709;SDS011;47633;51.494;5.386;2023-07-24T07:56:03;6.60;;;2.22;;
61709;SDS011;47633;51.494;5.386;2023-07-24T07:58:29;3.58;;;1.90;;
61709;SDS011;47633;51.494;5.386;2023-07-24T08:00:54;4.88;;;2.10;;
61709;SDS011;47633;51.494;5.386;2023-07-24T08:03:20;3.50;;;1.90;;
61709;SDS011;47633;51.494;5.386;2023-07-24T08:05:45;4.15;;;2.17;;
61709;SDS011;47633;51.494;5.386;2023-07-24T08:08:11;4.85;;;2.10;;
61709;SDS011;47633;51.494;5.386;2023-07-24T08:10:37;3.60;;;2.00;;
61709;SDS011;47633;51.494;5.386;2023-07-24T08:13:03;4.45;;;2.08;;
61709;SDS011;47633;51.494;5.386;2023-07-24T08:15:28;3.90;;;2.30;;
61709;SDS011;47633;51.494;5.386;2023-07-24T08:17:54;5.05;;;2.40;;
61709;SDS011;47633;51.494;5.386;2023-07-24T08:20:19;4.07;;;2.20;;
61709;SDS011;47633;51.494;5.386;2023-07-24T08:22:44;4.32;;;2.20;;
61709;SDS011;47633;51.494;5.386;2023-07-24T08:25:09;4.70;;;2.30;;
61709;SDS011;47633;51.494;5.386;2023-07-24T08:27:35;4.82;;;2.30;;
61709;SDS011;47633;51.494;5.386;2023-07-24T08:30:00;4.25;;;2.28;;
61709;SDS011;47633;51.494;5.386;2023-07-24T08:32:25;5.32;;;2.20;;
61709;SDS011;47633;51.494;5.386;2023-07-24T08:34:51;4.57;;;2.33;;
61709;SDS011;47633;51.494;5.386;2023-07-24T08:37:16;4.83;;;2.30;;
61709;SDS011;47633;51.494;5.386;2023-07-24T08:39:41;4.38;;;2.10;;
61709;SDS011;47633;51.494;5.386;2023-07-24T08:42:07;4.07;;;2.30;;
61709;SDS011;47633;51.494;5.386;2023-07-24T08:44:36;4.68;;;2.47;;
61709;SDS011;47633;51.494;5.386;2023-07-24T08:47:03;6.00;;;2.17;;
61709;SDS011;47633;51.494;5.386;2023-07-24T08:49:29;4.95;;;2.30;;
61709;SDS011;47633;51.494;5.386;2023-07-24T08:51:55;4.03;;;2.05;;
61709;SDS011;47633;51.494;5.386;2023-07-24T08:54:21;4.15;;;2.40;;
61709;SDS011;47633;51.494;5.386;2023-07-24T08:56:49;4.30;;;2.20;;
61709;SDS011;47633;51.494;5.386;2023-07-24T08:59:16;4.18;;;2.30;;
61709;SDS011;47633;51.494;5.386;2023-07-24T09:01:42;5.03;;;2.70;;
61709;SDS011;47633;51.494;5.386;2023-07-24T09:04:07;5.82;;;2.40;;
61709;SDS011;47633;51.494;5.386;2023-07-24T09:06:33;6.38;;;2.30;;
61709;SDS011;47633;51.494;5.386;2023-07-24T09:08:59;4.68;;;2.40;;
61709;SDS011;47633;51.494;5.386;2023-07-24T09:11:24;3.60;;;2.20;;
61709;SDS011;47633;51.494;5.386;2023-07-24T09:13:49;5.03;;;2.45;;
61709;SDS011;47633;51.494;5.386;2023-07-24T09:16:22;4.63;;;2.45;;
61709;SDS011;47633;51.494;5.386;2023-07-24T09:18:48;5.43;;;2.83;;
61709;SDS011;47633;51.494;5.386;2023-07-24T09:21:16;5.05;;;2.67;;
61709;SDS011;47633;51.494;5.386;2023-07-24T09:23:52;4.68;;;2.30;;
61709;SDS011;47633;51.494;5.386;2023-07-24T09:26:17;4.68;;;2.47;;
61709;SDS011;47633;51.494;5.386;2023-07-24T09:28:50;4.05;;;2.20;;
61709;SDS011;47633;51.494;5.386;2023-07-24T09:33:42;6.20;;;2.67;;
61709;SDS011;47633;51.494;5.386;2023-07-24T09:36:11;6.13;;;2.75;;
61709;SDS011;47633;51.494;5.386;2023-07-24T09:38:37;4.22;;;2.50;;
61709;SDS011;47633;51.494;5.386;2023-07-24T09:41:03;5.65;;;2.70;;
61709;SDS011;47633;51.494;5.386;2023-07-24T09:43:30;5.18;;;2.45;;
61709;SDS011;47633;51.494;5.386;2023-07-24T09:45:56;5.88;;;2.72;;
61709;SDS011;47633;51.494;5.386;2023-07-24T09:48:26;4.97;;;2.10;;
61709;SDS011;47633;51.494;5.386;2023-07-24T09:50:55;5.78;;;2.42;;
61709;SDS011;47633;51.494;5.386;2023-07-24T09:53:29;4.43;;;2.80;;
61709;SDS011;47633;51.494;5.386;2023-07-24T09:56:00;4.60;;;2.50;;
61709;SDS011;47633;51.494;5.386;2023-07-24T09:58:27;5.18;;;2.40;;
61709;SDS011;47633;51.494;5.386;2023-07-24T10:00:54;4.93;;;2.47;;
61709;SDS011;47633;51.494;5.386;2023-07-24T10:03:21;5.00;;;2.33;;
61709;SDS011;47633;51.494;5.386;2023-07-24T10:05:47;5.55;;;2.70;;
61709;SDS011;47633;51.494;5.386;2023-07-24T10:08:17;4.53;;;2.53;;
61709;SDS011;47633;51.494;5.386;2023-07-24T10:10:43;8.20;;;2.47;;
61709;SDS011;47633;51.494;5.386;2023-07-24T10:13:09;5.38;;;2.40;;
61709;SDS011;47633;51.494;5.386;2023-07-24T10:15:39;4.10;;;2.20;;
61709;SDS011;47633;51.494;5.386;2023-07-24T10:18:06;4.03;;;2.33;;
61709;SDS011;47633;51.494;5.386;2023-07-24T10:20:42;6.18;;;2.53;;
61709;SDS011;47633;51.494;5.386;2023-07-24T10:23:08;4.25;;;2.20;;
61709;SDS011;47633;51.494;5.386;2023-07-24T10:25:37;4.82;;;2.40;;
61709;SDS011;47633;51.494;5.386;2023-07-24T10:28:06;4.90;;;2.20;;
61709;SDS011;47633;51.494;5.386;2023-07-24T10:30:35;4.30;;;2.35;;
61709;SDS011;47633;51.494;5.386;2023-07-24T10:33:05;5.85;;;2.70;;
61709;SDS011;47633;51.494;5.386;2023-07-24T10:35:38;4.00;;;2.20;;
61709;SDS011;47633;51.494;5.386;2023-07-24T10:38:08;4.80;;;2.22;;
61709;SDS011;47633;51.494;5.386;2023-07-24T10:40:33;4.95;;;2.17;;
61709;SDS011;47633;51.494;5.386;2023-07-24T10:43:00;5.38;;;2.38;;
61709;SDS011;47633;51.494;5.386;2023-07-24T10:45:38;4.05;;;2.28;;
61709;SDS011;47633;51.494;5.386;2023-07-24T10:48:04;4.30;;;2.22;;
61709;SDS011;47633;51.494;5.386;2023-07-24T10:50:36;4.28;;;2.25;;
61709;SDS011;47633;51.494;5.386;2023-07-24T10:53:02;4.43;;;2.38;;
61709;SDS011;47633;51.494;5.386;2023-07-24T10:55:27;4.95;;;2.08;;
61709;SDS011;47633;51.494;5.386;2023-07-24T10:57:52;4.65;;;2.33;;
61709;SDS011;47633;51.494;5.386;2023-07-24T11:00:18;4.38;;;2.10;;
61709;SDS011;47633;51.494;5.386;2023-07-24T11:02:44;3.80;;;2.30;;
61709;SDS011;47633;51.494;5.386;2023-07-24T11:05:10;4.28;;;2.20;;
61709;SDS011;47633;51.494;5.386;2023-07-24T11:07:37;4.07;;;2.20;;
61709;SDS011;47633;51.494;5.386;2023-07-24T11:10:03;4.72;;;2.30;;
61709;SDS011;47633;51.494;5.386;2023-07-24T11:12:28;4.38;;;2.70;;
61709;SDS011;47633;51.494;5.386;2023-07-24T11:14:56;5.22;;;2.60;;
61709;SDS011;47633;51.494;5.386;2023-07-24T11:17:33;4.70;;;2.30;;
61709;SDS011;47633;51.494;5.386;2023-07-24T11:20:07;4.95;;;2.47;;
61709;SDS011;47633;51.494;5.386;2023-07-24T11:22:33;4.20;;;2.47;;
61709;SDS011;47633;51.494;5.386;2023-07-24T11:24:58;5.05;;;2.30;;
61709;SDS011;47633;51.494;5.386;2023-07-24T11:27:24;4.68;;;2.40;;
61709;SDS011;47633;51.494;5.386;2023-07-24T11:29:50;3.50;;;2.20;;
61709;SDS011;47633;51.494;5.386;2023-07-24T11:32:21;4.63;;;2.38;;
61709;SDS011;47633;51.494;5.386;2023-07-24T11:34:50;4.32;;;2.38;;
61709;SDS011;47633;51.494;5.386;2023-07-24T11:37:17;4.35;;;2.42;;
61709;SDS011;47633;51.494;5.386;2023-07-24T11:40:01;4.63;;;2.47;;
61709;SDS011;47633;51.494;5.386;2023-07-24T11:42:40;5.15;;;2.60;;
61709;SDS011;47633;51.494;5.386;2023-07-24T11:45:07;4.57;;;2.47;;
61709;SDS011;47633;51.494;5.386;2023-07-24T11:47:44;4.00;;;2.33;;
61709;SDS011;47633;51.494;5.386;2023-07-24T11:50:10;4.75;;;2.45;;
61709;SDS011;47633;51.494;5.386;2023-07-24T11:52:40;4.53;;;2.47;;
61709;SDS011;47633;51.494;5.386;2023-07-24T11:55:19;4.45;;;2.42;;
61709;SDS011;47633;51.494;5.386;2023-07-24T11:58:03;4.85;;;2.88;;
61709;SDS011;47633;51.494;5.386;2023-07-24T12:00:31;4.45;;;2.58;;
61709;SDS011;47633;51.494;5.386;2023-07-24T12:02:59;4.47;;;2.60;;
61709;SDS011;47633;51.494;5.386;2023-07-24T12:05:25;4.53;;;2.45;;
61709;SDS011;47633;51.494;5.386;2023-07-24T12:07:53;4.30;;;2.60;;
61709;SDS011;47633;51.494;5.386;2023-07-24T12:10:26;5.20;;;2.58;;
61709;SDS011;47633;51.494;5.386;2023-07-24T12:12:52;4.23;;;2.47;;
61709;SDS011;47633;51.494;5.386;2023-07-24T12:15:19;5.47;;;3.03;;
61709;SDS011;47633;51.494;5.386;2023-07-24T12:17:44;4.43;;;2.50;;
61709;SDS011;47633;51.494;5.386;2023-07-24T12:20:10;5.03;;;2.70;;
61709;SDS011;47633;51.494;5.386;2023-07-24T12:22:36;3.97;;;2.42;;
61709;SDS011;47633;51.494;5.386;2023-07-24T12:25:03;4.45;;;2.70;;
61709;SDS011;47633;51.494;5.386;2023-07-24T12:27:29;6.07;;;2.70;;
61709;SDS011;47633;51.494;5.386;2023-07-24T12:29:55;5.25;;;2.90;;
61709;SDS011;47633;51.494;5.386;2023-07-24T12:32:21;4.78;;;2.63;;
61709;SDS011;47633;51.494;5.386;2023-07-24T12:34:48;5.20;;;2.95;;
61709;SDS011;47633;51.494;5.386;2023-07-24T12:37:14;5.07;;;2.55;;
61709;SDS011;47633;51.494;5.386;2023-07-24T12:39:40;4.47;;;2.50;;
61709;SDS011;47633;51.494;5.386;2023-07-24T12:42:05;4.63;;;2.75;;
61709;SDS011;47633;51.494;5.386;2023-07-24T12:44:31;4.00;;;2.58;;
61709;SDS011;47633;51.494;5.386;2023-07-24T12:46:57;7.72;;;2.65;;
61709;SDS011;47633;51.494;5.386;2023-07-24T12:49:22;4.50;;;2.58;;
61709;SDS011;47633;51.494;5.386;2023-07-24T12:51:47;4.40;;;2.78;;
61709;SDS011;47633;51.494;5.386;2023-07-24T12:54:13;5.22;;;3.20;;
61709;SDS011;47633;51.494;5.386;2023-07-24T12:56:38;4.80;;;2.70;;
61709;SDS011;47633;51.494;5.386;2023-07-24T12:59:04;4.88;;;3.30;;
61709;SDS011;47633;51.494;5.386;2023-07-24T13:01:29;4.88;;;2.90;;
61709;SDS011;47633;51.494;5.386;2023-07-24T13:03:55;5.70;;;2.97;;
61709;SDS011;47633;51.494;5.386;2023-07-24T13:06:20;5.53;;;2.83;;
61709;SDS011;47633;51.494;5.386;2023-07-24T13:08:46;4.57;;;2.75;;
61709;SDS011;47633;51.494;5.386;2023-07-24T13:11:11;5.43;;;2.92;;
61709;SDS011;47633;51.494;5.386;2023-07-24T13:13:37;4.63;;;3.03;;
61709;SDS011;47633;51.494;5.386;2023-07-24T13:16:02;5.27;;;3.33;;
61709;SDS011;47633;51.494;5.386;2023-07-24T13:18:28;5.45;;;3.42;;
61709;SDS011;47633;51.494;5.386;2023-07-24T13:20:54;4.35;;;3.03;;
61709;SDS011;47633;51.494;5.386;2023-07-24T13:23:19;4.82;;;2.90;;
61709;SDS011;47633;51.494;5.386;2023-07-24T13:25:44;4.50;;;3.03;;
61709;SDS011;47633;51.494;5.386;2023-07-24T13:28:10;5.63;;;3.30;;
61709;SDS011;47633;51.494;5.386;2023-07-24T13:30:35;4.45;;;3.25;;
61709;SDS011;47633;51.494;5.386;2023-07-24T13:33:00;4.77;;;3.07;;
61709;SDS011;47633;51.494;5.386;2023-07-24T13:35:26;4.68;;;3.00;;
61709;SDS011;47633;51.494;5.386;2023-07-24T13:37:51;5.47;;;3.30;;
61709;SDS011;47633;51.494;5.386;2023-07-24T13:40:16;5.38;;;3.00;;
61709;SDS011;47633;51.494;5.386;2023-07-24T13:42:41;5.15;;;2.85;;
61709;SDS011;47633;51.494;5.386;2023-07-24T13:45:07;6.35;;;2.63;;
61709;SDS011;47633;51.494;5.386;2023-07-24T13:47:33;4.63;;;2.65;;
61709;SDS011;47633;51.494;5.386;2023-07-24T13:49:58;7.20;;;3.25;;
61709;SDS011;47633;51.494;5.386;2023-07-24T13:52:25;5.32;;;3.42;;
61709;SDS011;47633;51.494;5.386;2023-07-24T13:54:50;4.80;;;3.03;;
61709;SDS011;47633;51.494;5.386;2023-07-24T13:57:15;4.25;;;3.00;;
61709;SDS011;47633;51.494;5.386;2023-07-24T13:59:41;4.47;;;3.08;;
61709;SDS011;47633;51.494;5.386;2023-07-24T14:02:06;4.82;;;3.35;;
61709;SDS011;47633;51.494;5.386;2023-07-24T14:04:31;5.13;;;3.03;;
61709;SDS011;47633;51.494;5.386;2023-07-24T14:06:57;5.20;;;3.30;;
61709;SDS011;47633;51.494;5.386;2023-07-24T14:09:22;6.75;;;3.25;;
61709;SDS011;47633;51.494;5.386;2023-07-24T14:11:48;4.43;;;2.95;;
61709;SDS011;47633;51.494;5.386;2023-07-24T14:14:13;5.00;;;3.25;;
61709;SDS011;47633;51.494;5.386;2023-07-24T14:16:40;5.55;;;3.28;;
61709;SDS011;47633;51.494;5.386;2023-07-24T14:19:06;5.23;;;3.20;;
61709;SDS011;47633;51.494;5.386;2023-07-24T14:21:31;5.00;;;3.10;;
61709;SDS011;47633;51.494;5.386;2023-07-24T14:23:56;6.22;;;3.10;;
61709;SDS011;47633;51.494;5.386;2023-07-24T14:26:22;5.28;;;3.15;;
61709;SDS011;47633;51.494;5.386;2023-07-24T14:28:48;5.05;;;3.30;;
61709;SDS011;47633;51.494;5.386;2023-07-24T14:31:13;5.80;;;3.60;;
61709;SDS011;47633;51.494;5.386;2023-07-24T14:33:39;5.20;;;3.17;;
61709;SDS011;47633;51.494;5.386;2023-07-24T14:36:04;6.30;;;3.38;;
61709;SDS011;47633;51.494;5.386;2023-07-24T14:38:29;5.82;;;3.25;;
61709;SDS011;47633;51.494;5.386;2023-07-24T14:40:55;4.60;;;3.15;;
61709;SDS011;47633;51.494;5.386;2023-07-24T14:43:20;3.97;;;2.90;;
61709;SDS011;47633;51.494;5.386;2023-07-24T14:45:45;6.03;;;3.30;;
61709;SDS011;47633;51.494;5.386;2023-07-24T14:48:11;7.72;;;3.13;;